CDT,Max TemperatureF,Mean TemperatureF,Min TemperatureF,Max Dew PointF,MeanDew PointF,Min DewpointF,Max Humidity, Mean Humidity, Min Humidity, Max Sea Level PressureIn, Mean Sea Level PressureIn, Min Sea Level PressureIn, Max VisibilityMiles, Mean VisibilityMiles, Min VisibilityMiles, Max Wind SpeedMPH, Mean Wind SpeedMPH, Max Gust SpeedMPH,PrecipitationIn, CloudCover, Events, WindDirDegrees
2012-10-1,81,67,53,55,49,43,77,53,28,29.93,29.88,29.83,10,8,1,31,7,40,0.70,3,Rain-Thunderstorm,326
2012-10-2,77,62,47,47,43,41,86,58,29,29.99,29.93,29.87,10,9,2,13,3,17,0.00,0,,288
2012-10-3,80,60,40,49,42,37,100,62,23,29.97,29.92,29.86,10,7,0,20,6,28,0.00,0,Fog,172
2012-10-4,65,58,51,51,43,37,71,62,53,30.28,30.19,29.96,10,10,10,18,7,25,T,6,Rain,336
2012-10-5,53,43,33,35,32,30,89,67,44,30.34,30.30,30.26,10,10,10,21,8,29,T,5,Rain,6
2012-10-6,48,42,35,34,27,23,89,63,36,30.40,30.35,30.31,10,10,10,14,5,17,0.00,4,,319
2012-10-7,59,44,28,32,26,23,78,52,25,30.36,30.27,30.15,10,10,10,14,3,22,0.00,1,,257
2012-10-8,68,51,33,36,32,28,82,55,27,30.15,30.04,29.92,10,10,10,22,9,30,0.00,0,,189
2012-10-9,68,52,36,45,37,27,70,57,44,30.16,29.96,29.90,10,10,10,17,7,24,0.00,2,,248
2012-10-10,67,48,29,33,29,25,78,51,24,30.30,30.21,30.14,10,10,10,12,3,15,0.00,0,,169
2012-10-11,78,60,41,57,45,31,73,57,40,30.19,30.09,30.00,10,10,9,21,6,30,T,4,,112
2012-10-12,60,56,51,57,41,26,93,66,38,30.30,30.19,30.05,10,9,2,20,11,25,0.18,8,Rain-Thunderstorm,91
2012-10-13,71,66,60,67,63,57,93,89,84,30.04,29.81,29.61,10,7,1,16,9,23,0.44,8,Rain-Thunderstorm,170
2012-10-14,72,60,47,63,52,40,93,63,33,30.02,29.79,29.55,10,10,10,25,10,33,0.05,4,Rain-Thunderstorm,277
2012-10-15,80,61,41,52,46,39,100,66,32,30.01,29.95,29.79,10,7,0,12,3,15,0.00,0,Fog,123
2012-10-16,83,71,59,54,50,48,75,54,33,29.76,29.61,29.48,10,10,10,21,8,29,0.00,0,,201
2012-10-17,70,61,51,56,43,25,84,55,25,29.69,29.54,29.41,10,10,9,32,10,38,0.01,2,Rain,259
2012-10-18,63,56,48,35,28,24,50,38,25,29.74,29.70,29.65,10,10,10,35,17,51,0.00,4,,281
2012-10-19,59,50,40,41,37,34,89,68,46,29.85,29.78,29.70,10,10,10,28,11,38,T,7,Rain,302
2012-10-20,75,56,36,44,39,33,92,61,29,29.85,29.80,29.69,10,8,0,16,6,21,0.00,0,Fog,108
2012-10-21,79,64,48,66,57,44,86,74,62,29.78,29.74,29.70,10,10,9,21,8,26,0.00,3,,134
2012-10-22,84,73,62,66,63,58,84,66,47,29.83,29.75,29.68,10,10,9,21,7,28,T,3,Rain,204
2012-10-23,86,75,64,66,64,57,84,68,51,29.81,29.73,29.64,10,10,10,24,12,33,0.00,4,,176
2012-10-24,85,78,70,66,64,61,84,68,51,29.78,29.72,29.65,10,10,10,23,13,32,0.00,6,,177
2012-10-25,75,57,38,63,42,28,89,71,52,30.34,29.95,29.61,10,9,4,25,16,35,0.04,7,Rain,319
2012-10-26,48,40,31,28,26,25,75,59,42,30.53,30.45,30.37,10,10,10,18,9,25,0.00,2,,345
2012-10-27,48,36,24,30,26,21,92,67,42,30.47,30.38,30.28,10,10,10,9,1,15,0.00,0,,37
2012-10-28,55,40,25,31,27,23,92,62,32,30.38,30.31,30.26,10,10,6,9,3,13,0.00,2,,114
2012-10-29,62,51,40,32,30,28,62,47,31,30.30,30.21,30.11,10,10,10,18,9,28,0.00,3,,135
2012-10-30,61,49,37,32,30,29,76,54,31,30.11,30.04,29.99,10,10,10,18,7,22,0.00,3,,77
2012-10-31,65,48,31,36,30,26,82,55,28,30.12,30.05,30.00,10,10,7,8,1,13,0.00,0,,265